createdAt,value
2024-03-05T00:00:38.338Z,9.48
2024-03-05T00:03:26.015Z,9.43
2024-03-05T00:05:52.893Z,9.43
2024-03-05T00:08:19.954Z,9.40
2024-03-05T00:10:47.450Z,9.40
2024-03-05T00:13:14.555Z,9.33
2024-03-05T00:15:41.336Z,9.32
2024-03-05T00:18:08.489Z,9.29
2024-03-05T00:20:35.309Z,9.24
2024-03-05T00:23:02.356Z,9.23
2024-03-05T00:25:29.160Z,9.22
2024-03-05T00:27:56.310Z,9.21
2024-03-05T00:30:23.630Z,9.17
2024-03-05T00:32:50.810Z,9.18
2024-03-05T00:35:17.964Z,9.18
2024-03-05T00:37:45.444Z,9.16
2024-03-05T00:40:13.023Z,9.15
2024-03-05T00:42:40.319Z,9.14
2024-03-05T00:45:12.083Z,9.15
2024-03-05T00:47:39.535Z,9.13
2024-03-05T00:50:06.869Z,9.13
2024-03-05T00:52:34.741Z,9.12
2024-03-05T00:55:02.368Z,9.13
2024-03-05T00:57:30.187Z,9.13
2024-03-05T00:59:57.337Z,9.14
2024-03-05T01:02:24.811Z,9.14
2024-03-05T01:04:54.486Z,9.16
2024-03-05T01:07:21.820Z,9.15
2024-03-05T01:09:50.330Z,9.09
2024-03-05T01:12:17.806Z,9.06
2024-03-05T01:14:45.780Z,9.02
2024-03-05T01:17:13.836Z,9.04
2024-03-05T01:19:41.025Z,9.04
2024-03-05T01:22:08.253Z,9.03
2024-03-05T01:24:34.960Z,9.00
2024-03-05T01:27:02.017Z,8.95
2024-03-05T01:29:28.807Z,8.95
2024-03-05T01:32:00.804Z,8.94
2024-03-05T01:34:27.967Z,8.92
2024-03-05T01:36:58.912Z,8.91
2024-03-05T01:39:27.062Z,8.90
2024-03-05T01:41:55.290Z,8.91
2024-03-05T01:44:22.313Z,8.93
2024-03-05T01:46:52.688Z,8.94
2024-03-05T01:49:22.560Z,8.93
2024-03-05T01:51:49.926Z,8.91
2024-03-05T01:54:19.099Z,8.88
2024-03-05T01:56:50.434Z,8.82
2024-03-05T01:59:18.736Z,8.75
2024-03-05T02:01:46.564Z,8.71
2024-03-05T02:04:13.972Z,8.67
2024-03-05T02:06:43.468Z,8.62
2024-03-05T02:09:12.715Z,8.54
2024-03-05T02:11:52.624Z,8.43
2024-03-05T02:14:25.291Z,8.34
2024-03-05T02:16:53.096Z,8.25
2024-03-05T02:19:19.917Z,8.19
2024-03-05T02:21:47.320Z,8.15
2024-03-05T02:24:14.102Z,8.13
2024-03-05T02:26:41.812Z,8.08
2024-03-05T02:29:11.819Z,8.02
2024-03-05T02:31:38.938Z,8.01
2024-03-05T02:34:06.230Z,8.01
2024-03-05T02:36:33.420Z,8.00
2024-03-05T02:39:00.171Z,8.00
2024-03-05T02:41:27.220Z,7.96
2024-03-05T02:43:54.025Z,7.96
2024-03-05T02:46:21.230Z,7.92
2024-03-05T02:48:49.043Z,7.90
2024-03-05T02:51:16.153Z,7.82
2024-03-05T02:53:42.901Z,7.82
2024-03-05T02:56:11.391Z,7.78
2024-03-05T02:58:38.463Z,7.76
2024-03-05T03:01:08.994Z,7.72
2024-03-05T03:03:36.255Z,7.67
2024-03-05T03:06:04.443Z,7.65
2024-03-05T03:08:31.529Z,7.66
2024-03-05T03:10:58.673Z,7.68
2024-03-05T03:13:25.642Z,7.65
2024-03-05T03:15:52.725Z,7.64
2024-03-05T03:18:21.397Z,7.62
2024-03-05T03:20:48.475Z,7.61
2024-03-05T03:23:15.373Z,7.58
2024-03-05T03:25:42.622Z,7.53
2024-03-05T03:28:09.504Z,7.52
2024-03-05T03:30:37.065Z,7.51
2024-03-05T03:33:05.786Z,7.50
2024-03-05T03:35:33.497Z,7.48
2024-03-05T03:38:00.374Z,7.45
2024-03-05T03:40:27.984Z,7.39
2024-03-05T03:42:55.945Z,7.39
2024-03-05T03:45:23.138Z,7.36
2024-03-05T03:47:51.771Z,7.37
2024-03-05T03:50:19.220Z,7.35
2024-03-05T03:52:46.219Z,7.32
2024-03-05T03:55:13.252Z,7.28
2024-03-05T03:57:40.300Z,7.22
2024-03-05T04:00:09.125Z,7.18
2024-03-05T04:02:41.725Z,7.16
2024-03-05T04:05:10.977Z,7.11
2024-03-05T04:07:38.120Z,7.09
2024-03-05T04:10:09.080Z,7.07
2024-03-05T04:12:35.905Z,7.04
2024-03-05T04:15:05.915Z,7.00
2024-03-05T04:17:32.792Z,6.95
2024-03-05T04:20:00.048Z,6.90
2024-03-05T04:22:27.234Z,6.89
2024-03-05T04:24:56.508Z,6.90
2024-03-05T04:27:28.312Z,6.92
2024-03-05T04:29:58.100Z,6.91
2024-03-05T04:32:28.613Z,6.89
2024-03-05T04:35:02.062Z,6.90
2024-03-05T04:37:32.274Z,6.90
2024-03-05T04:39:59.710Z,6.93
2024-03-05T04:42:27.074Z,6.93
2024-03-05T04:44:57.088Z,6.97
2024-03-05T04:47:26.178Z,6.97
2024-03-05T04:49:53.593Z,7.00
2024-03-05T04:52:20.391Z,6.99
2024-03-05T04:54:47.383Z,6.98
2024-03-05T04:57:14.319Z,6.91
2024-03-05T04:59:42.313Z,6.81
2024-03-05T05:02:10.196Z,6.79
2024-03-05T05:04:39.537Z,6.81
2024-03-05T05:07:07.128Z,6.81
2024-03-05T05:09:37.965Z,6.84
2024-03-05T05:12:05.014Z,6.83
2024-03-05T05:14:35.219Z,6.78
2024-03-05T05:17:04.221Z,6.77
2024-03-05T05:19:31.376Z,6.76
2024-03-05T05:21:58.353Z,6.66
2024-03-05T05:24:25.411Z,6.64
2024-03-05T05:26:52.214Z,6.63
2024-03-05T05:29:27.284Z,6.62
2024-03-05T05:32:04.372Z,6.58
2024-03-05T05:34:31.643Z,6.57
2024-03-05T05:36:58.372Z,6.52
2024-03-05T05:39:25.996Z,6.47
2024-03-05T05:41:54.165Z,6.51
2024-03-05T05:44:21.558Z,6.50
2024-03-05T05:46:48.436Z,6.52
2024-03-05T05:49:21.008Z,6.54
2024-03-05T05:51:48.652Z,6.54
2024-03-05T05:54:19.803Z,6.54
2024-03-05T05:56:49.721Z,6.55
2024-03-05T05:59:18.153Z,6.54
2024-03-05T06:01:45.438Z,6.53
2024-03-05T06:04:13.056Z,6.55
2024-03-05T06:06:39.939Z,6.56
2024-03-05T06:09:10.451Z,6.58
2024-03-05T06:11:38.274Z,6.57
2024-03-05T06:14:06.119Z,6.57
2024-03-05T06:16:33.749Z,6.59
2024-03-05T06:19:01.474Z,6.61
2024-03-05T06:21:28.316Z,6.61
2024-03-05T06:23:55.498Z,6.64
2024-03-05T06:26:22.730Z,6.65
2024-03-05T06:28:49.887Z,6.63
2024-03-05T06:31:17.163Z,6.59
2024-03-05T06:33:45.444Z,6.59
2024-03-05T06:36:13.734Z,6.59
2024-03-05T06:38:41.049Z,6.59
2024-03-05T06:41:10.914Z,6.56
2024-03-05T06:43:38.759Z,6.59
2024-03-05T06:46:06.065Z,6.55
2024-03-05T06:48:34.624Z,6.50
2024-03-05T06:51:04.978Z,6.51
2024-03-05T06:53:50.611Z,6.49
2024-03-05T06:56:36.037Z,6.51
2024-03-05T06:59:05.833Z,6.51
2024-03-05T07:01:34.033Z,6.51
2024-03-05T07:04:02.880Z,6.50
2024-03-05T07:06:31.694Z,6.46
2024-03-05T07:09:01.134Z,6.48
2024-03-05T07:11:28.973Z,6.45
2024-03-05T07:13:56.830Z,6.44
2024-03-05T07:16:25.442Z,6.42
2024-03-05T07:18:56.638Z,6.42
2024-03-05T07:21:25.731Z,6.43
2024-03-05T07:23:55.067Z,6.43
2024-03-05T07:26:23.016Z,6.42
2024-03-05T07:28:50.940Z,6.43
2024-03-05T07:31:19.023Z,6.42
2024-03-05T07:33:49.832Z,6.42
2024-03-05T07:36:19.442Z,6.41
2024-03-05T07:38:46.577Z,6.38
2024-03-05T07:41:21.601Z,6.35
2024-03-05T07:43:53.914Z,6.27
2024-03-05T07:46:20.901Z,6.23
2024-03-05T07:48:48.002Z,6.20
2024-03-05T07:51:21.465Z,6.17
2024-03-05T07:53:52.828Z,6.17
2024-03-05T07:56:19.575Z,6.20
2024-03-05T07:58:46.698Z,6.18
2024-03-05T08:01:13.621Z,6.19
2024-03-05T08:03:42.555Z,6.20
2024-03-05T08:06:09.706Z,6.23
2024-03-05T08:08:36.923Z,6.27
2024-03-05T08:11:03.942Z,6.29
2024-03-05T08:13:31.121Z,6.31
2024-03-05T08:15:57.947Z,6.31
2024-03-05T08:18:24.952Z,6.32
2024-03-05T08:20:52.116Z,6.33
2024-03-05T08:23:19.221Z,6.35
2024-03-05T08:25:49.600Z,6.33
2024-03-05T08:28:16.726Z,6.34
2024-03-05T08:30:43.967Z,6.37
2024-03-05T08:33:11.617Z,6.39
2024-03-05T08:35:38.534Z,6.40
2024-03-05T08:38:05.883Z,6.40
2024-03-05T08:40:34.539Z,6.43
2024-03-05T08:43:05.080Z,6.42
2024-03-05T08:45:32.700Z,6.44
2024-03-05T08:47:59.943Z,6.45
2024-03-05T08:50:30.190Z,6.45
2024-03-05T08:53:00.800Z,6.44
2024-03-05T08:55:28.125Z,6.40
2024-03-05T08:57:56.182Z,6.38
2024-03-05T09:00:33.365Z,6.38
2024-03-05T09:03:10.941Z,6.36
2024-03-05T09:05:38.042Z,6.35
2024-03-05T09:08:06.648Z,6.36
2024-03-05T09:10:34.956Z,6.40
2024-03-05T09:13:02.330Z,6.40
2024-03-05T09:15:29.096Z,6.42
2024-03-05T09:17:56.155Z,6.43
2024-03-05T09:20:24.517Z,6.46
2024-03-05T09:22:51.813Z,6.49
2024-03-05T09:25:18.828Z,6.55
2024-03-05T09:27:48.463Z,6.63
2024-03-05T09:30:16.732Z,6.64
2024-03-05T09:32:45.493Z,6.62
2024-03-05T09:35:14.353Z,6.64
2024-03-05T09:37:48.446Z,6.68
2024-03-05T09:40:19.412Z,6.65
2024-03-05T09:42:47.468Z,6.60
2024-03-05T09:45:16.903Z,6.62
2024-03-05T09:47:44.673Z,6.63
2024-03-05T09:50:17.333Z,6.63
2024-03-05T09:52:45.172Z,6.64
2024-03-05T09:55:13.463Z,6.61
2024-03-05T09:57:42.031Z,6.61
2024-03-05T10:00:16.609Z,6.60
2024-03-05T10:02:53.317Z,6.60
2024-03-05T10:05:21.371Z,6.55
2024-03-05T10:07:49.441Z,6.55
2024-03-05T10:10:21.044Z,6.55
2024-03-05T10:12:48.505Z,6.52
2024-03-05T10:15:22.901Z,6.50
2024-03-05T10:17:52.324Z,6.49
2024-03-05T10:20:28.815Z,6.50
2024-03-05T10:22:59.564Z,6.48
2024-03-05T10:25:28.805Z,6.50
2024-03-05T10:27:57.098Z,6.52
2024-03-05T10:30:37.760Z,6.53
2024-03-05T10:33:12.147Z,6.51
2024-03-05T10:35:40.292Z,6.49
2024-03-05T10:38:11.291Z,6.47
2024-03-05T10:40:39.410Z,6.53
2024-03-05T10:43:08.938Z,6.60
2024-03-05T10:45:42.468Z,6.65
2024-03-05T10:48:11.930Z,6.71
2024-03-05T10:50:41.662Z,6.75
2024-03-05T10:53:10.257Z,6.73
2024-03-05T10:55:41.961Z,6.77
2024-03-05T10:58:14.861Z,6.76
2024-03-05T11:00:44.939Z,6.75
2024-03-05T11:03:14.279Z,6.83
2024-03-05T11:05:49.184Z,6.88
2024-03-05T11:08:20.203Z,6.97
2024-03-05T11:11:00.372Z,7.06
2024-03-05T11:13:28.142Z,7.15
2024-03-05T11:15:55.104Z,7.20
2024-03-05T11:18:30.030Z,7.28
2024-03-05T11:20:57.284Z,7.30
2024-03-05T11:23:30.766Z,7.34
2024-03-05T11:30:42.816Z,7.36
2024-03-05T11:33:16.378Z,7.40
2024-03-05T11:35:52.271Z,7.44
2024-03-05T11:38:20.349Z,7.51
2024-03-05T11:40:47.763Z,7.57
2024-03-05T11:43:38.141Z,7.66
2024-03-05T11:46:14.095Z,7.74
2024-03-05T11:48:41.178Z,7.78
2024-03-05T11:51:08.247Z,7.84
2024-03-05T11:53:36.882Z,7.87
2024-03-05T11:56:09.728Z,7.94
2024-03-05T11:58:39.552Z,7.98
2024-03-05T12:01:06.595Z,7.98
2024-03-05T12:03:33.876Z,8.01
2024-03-05T12:06:01.786Z,8.00
2024-03-05T12:08:29.095Z,7.98
2024-03-05T12:11:02.916Z,8.00
2024-03-05T12:13:32.519Z,8.04
2024-03-05T12:16:12.883Z,8.03
2024-03-05T12:18:40.997Z,8.01
2024-03-05T12:21:08.318Z,8.04
2024-03-05T12:23:41.789Z,8.04
2024-03-05T12:26:10.605Z,8.03
2024-03-05T12:28:38.296Z,8.03
2024-03-05T12:31:05.617Z,7.99
2024-03-05T12:33:32.675Z,7.97
2024-03-05T12:35:59.699Z,7.92
2024-03-05T12:38:33.250Z,7.89
2024-03-05T12:41:03.153Z,7.81
2024-03-05T12:43:30.528Z,7.75
2024-03-05T12:46:04.155Z,7.69
2024-03-05T12:48:36.265Z,7.63
2024-03-05T12:51:04.569Z,7.57
2024-03-05T12:53:32.043Z,7.58
2024-03-05T12:56:03.422Z,7.53
2024-03-05T12:58:43.832Z,7.51
2024-03-05T13:01:17.182Z,7.46
2024-03-05T13:03:44.857Z,7.39
2024-03-05T13:06:12.509Z,7.38
2024-03-05T13:08:40.837Z,7.39
2024-03-05T13:11:07.889Z,7.39
2024-03-05T13:13:35.144Z,7.33
2024-03-05T13:16:03.565Z,7.28
2024-03-05T13:18:30.594Z,7.26
2024-03-05T13:20:57.721Z,7.28
2024-03-05T13:23:24.889Z,7.32
2024-03-05T13:25:51.739Z,7.31
2024-03-05T13:28:18.796Z,7.31
2024-03-05T13:30:45.508Z,7.31
2024-03-05T13:33:12.880Z,7.30
2024-03-05T13:35:41.519Z,7.29
2024-03-05T13:38:11.410Z,7.26
2024-03-05T13:40:38.396Z,7.28
2024-03-05T13:43:05.427Z,7.33
2024-03-05T13:45:32.175Z,7.33
2024-03-05T13:48:00.427Z,7.37
2024-03-05T13:50:28.669Z,7.40
2024-03-05T13:52:56.205Z,7.42
2024-03-05T13:55:27.154Z,7.44
2024-03-05T13:57:54.342Z,7.46
2024-03-05T14:00:21.864Z,7.46
2024-03-05T14:02:49.777Z,7.44
2024-03-05T14:05:17.089Z,7.41
2024-03-05T14:07:45.710Z,7.40
2024-03-05T14:10:13.256Z,7.37
2024-03-05T14:12:41.284Z,7.36
2024-03-05T14:15:21.488Z,7.35
2024-03-05T14:17:49.375Z,7.32
2024-03-05T14:20:21.068Z,7.31
2024-03-05T14:22:48.566Z,7.34
2024-03-05T14:25:18.189Z,7.39
2024-03-05T14:27:48.520Z,7.41
2024-03-05T14:30:19.184Z,7.41
2024-03-05T14:32:46.759Z,7.47
2024-03-05T14:35:13.773Z,7.49
2024-03-05T14:37:43.604Z,7.49
2024-03-05T14:40:11.764Z,7.47
2024-03-05T14:42:39.112Z,7.45
2024-03-05T14:45:06.560Z,7.47
2024-03-05T14:47:33.834Z,7.44
2024-03-05T14:50:01.525Z,7.42
2024-03-05T14:52:30.196Z,7.43
2024-03-05T14:54:59.009Z,7.45
2024-03-05T14:57:27.814Z,7.45
2024-03-05T14:59:54.790Z,7.43
2024-03-05T15:02:22.066Z,7.41
2024-03-05T15:04:48.982Z,7.41
2024-03-05T15:07:17.080Z,7.43
2024-03-05T15:09:44.161Z,7.44
2024-03-05T15:12:14.215Z,7.47
2024-03-05T15:14:43.430Z,7.44
2024-03-05T15:17:10.954Z,7.44
2024-03-05T15:19:37.885Z,7.43
2024-03-05T15:22:05.148Z,7.43
2024-03-05T15:24:32.935Z,7.43
2024-03-05T15:27:05.424Z,7.43
2024-03-05T15:29:33.451Z,7.41
2024-03-05T15:32:02.718Z,7.41
2024-03-05T15:34:30.006Z,7.39
2024-03-05T15:36:57.114Z,7.36
2024-03-05T15:39:24.147Z,7.36
2024-03-05T15:41:51.374Z,7.37
2024-03-05T15:44:19.520Z,7.38
2024-03-05T15:46:46.838Z,7.38
2024-03-05T15:49:13.763Z,7.38
2024-03-05T15:51:42.316Z,7.38
2024-03-05T15:54:09.180Z,7.38
2024-03-05T15:56:46.221Z,7.34
2024-03-05T15:59:32.170Z,7.31
2024-03-05T16:01:59.807Z,7.33
2024-03-05T16:04:48.761Z,7.34
2024-03-05T16:07:13.778Z,7.32
2024-03-05T16:09:40.982Z,7.30
2024-03-05T16:12:12.137Z,7.31
2024-03-05T16:14:41.752Z,7.32
2024-03-05T16:17:10.815Z,7.34
2024-03-05T16:19:40.156Z,7.33
2024-03-05T16:22:09.886Z,7.32
2024-03-05T16:24:36.693Z,7.28
2024-03-05T16:27:03.911Z,7.30
2024-03-05T16:29:30.660Z,7.30
2024-03-05T16:31:59.734Z,7.32
2024-03-05T16:34:26.740Z,7.29
2024-03-05T16:36:53.876Z,7.28
2024-03-05T16:39:21.480Z,7.32
2024-03-05T16:41:48.541Z,7.30
2024-03-05T16:44:15.462Z,7.31
2024-03-05T16:46:42.711Z,7.31
2024-03-05T16:49:09.725Z,7.32
2024-03-05T16:51:41.118Z,7.30
2024-03-05T16:54:08.028Z,7.26
2024-03-05T16:56:35.119Z,7.28
2024-03-05T16:59:05.342Z,7.25
2024-03-05T17:01:32.722Z,7.27
2024-03-05T17:04:01.713Z,7.26
2024-03-05T17:06:29.581Z,7.27
2024-03-05T17:08:57.553Z,7.28
2024-03-05T17:11:25.063Z,7.30
2024-03-05T17:13:52.135Z,7.29
2024-03-05T17:16:20.228Z,7.25
2024-03-05T17:18:47.286Z,7.18
2024-03-05T17:21:14.684Z,7.12
2024-03-05T17:23:46.188Z,7.06
2024-03-05T17:26:16.239Z,7.05
2024-03-05T17:28:43.745Z,7.03
2024-03-05T17:31:12.746Z,7.03
2024-03-05T17:33:40.416Z,7.04
2024-03-05T17:36:07.827Z,7.04
2024-03-05T17:38:34.660Z,7.06
2024-03-05T17:41:04.550Z,7.10
2024-03-05T17:43:31.732Z,7.10
2024-03-05T17:45:59.720Z,7.09
2024-03-05T17:48:28.420Z,7.09
2024-03-05T17:50:55.725Z,7.11
2024-03-05T17:53:22.892Z,7.14
2024-03-05T17:55:49.989Z,7.15
2024-03-05T17:58:16.802Z,7.15
2024-03-05T18:00:47.436Z,7.13
2024-03-05T18:03:23.470Z,7.11
2024-03-05T18:05:50.982Z,7.09
2024-03-05T18:08:17.898Z,7.09
2024-03-05T18:10:45.165Z,7.05
2024-03-05T18:13:12.572Z,7.01
2024-03-05T18:15:40.659Z,6.98
2024-03-05T18:18:08.207Z,6.95
2024-03-05T18:20:36.518Z,6.95
2024-03-05T18:23:05.782Z,6.95
2024-03-05T18:25:37.110Z,6.94
2024-03-05T18:28:06.298Z,6.90
2024-03-05T18:30:39.276Z,6.86
2024-03-05T18:33:08.767Z,6.80
2024-03-05T18:35:38.213Z,6.75
2024-03-05T18:38:16.599Z,6.74
2024-03-05T18:40:53.962Z,6.75
2024-03-05T18:43:22.571Z,6.71
2024-03-05T18:45:50.913Z,6.70
2024-03-05T18:48:18.307Z,6.67
2024-03-05T18:50:46.873Z,6.66
2024-03-05T18:53:14.066Z,6.66
2024-03-05T18:55:42.273Z,6.63
2024-03-05T18:58:09.800Z,6.64
2024-03-05T19:00:41.226Z,6.65
2024-03-05T19:03:08.626Z,6.64
2024-03-05T19:05:36.415Z,6.61
2024-03-05T19:08:06.261Z,6.59
2024-03-05T19:10:33.581Z,6.57
2024-03-05T19:13:03.635Z,6.58
2024-03-05T19:15:34.745Z,6.58
2024-03-05T19:18:05.494Z,6.59
2024-03-05T19:20:33.006Z,6.57
2024-03-05T19:22:59.801Z,6.54
2024-03-05T19:25:29.569Z,6.54
2024-03-05T19:27:56.591Z,6.54
2024-03-05T19:30:23.841Z,6.51
2024-03-05T19:32:50.630Z,6.51
2024-03-05T19:35:18.757Z,6.53
2024-03-05T19:37:49.592Z,6.54
2024-03-05T19:40:18.533Z,6.60
2024-03-05T19:42:47.929Z,6.63
2024-03-05T19:45:15.228Z,6.63
2024-03-05T19:47:42.424Z,6.66
2024-03-05T19:50:14.765Z,6.65
2024-03-05T19:52:41.994Z,6.63
2024-03-05T19:55:09.861Z,6.61
2024-03-05T19:57:36.733Z,6.61
2024-03-05T20:00:12.936Z,6.62
2024-03-05T20:02:40.480Z,6.58
2024-03-05T20:05:08.188Z,6.56
2024-03-05T20:07:35.223Z,6.55
2024-03-05T20:10:02.724Z,6.54
2024-03-05T20:12:29.777Z,6.52
2024-03-05T20:14:56.840Z,6.52
2024-03-05T20:17:25.558Z,6.51
2024-03-05T20:19:54.555Z,6.53
2024-03-05T20:22:24.276Z,6.56
2024-03-05T20:24:59.767Z,6.59
2024-03-05T20:27:31.747Z,6.56
2024-03-05T20:30:00.756Z,6.56
2024-03-05T20:32:30.682Z,6.56
2024-03-05T20:34:58.444Z,6.57
2024-03-05T20:37:25.352Z,6.56
2024-03-05T20:39:55.856Z,6.58
2024-03-05T20:42:24.362Z,6.59
2024-03-05T20:44:51.417Z,6.62
2024-03-05T20:47:18.540Z,6.64
2024-03-05T20:49:46.715Z,6.66
2024-03-05T20:52:13.651Z,6.68
2024-03-05T20:54:40.720Z,6.68
2024-03-05T20:57:07.578Z,6.71
2024-03-05T20:59:35.303Z,6.70
2024-03-05T21:02:10.021Z,6.70
2024-03-05T21:04:38.394Z,6.70
2024-03-05T21:07:06.206Z,6.71
2024-03-05T21:09:34.586Z,6.68
2024-03-05T21:12:01.588Z,6.65
2024-03-05T21:14:28.842Z,6.63
2024-03-05T21:16:55.794Z,6.60
2024-03-05T21:19:27.224Z,6.59
2024-03-05T21:21:54.179Z,6.57
2024-03-05T21:24:24.056Z,6.55
2024-03-05T21:27:09.572Z,6.51
2024-03-05T21:29:38.184Z,6.51
2024-03-05T21:32:05.114Z,6.47
2024-03-05T21:34:32.217Z,6.44
2024-03-05T21:36:59.096Z,6.41
2024-03-05T21:39:26.490Z,6.38
2024-03-05T21:41:55.585Z,6.33
2024-03-05T21:44:29.891Z,6.30
2024-03-05T21:47:01.675Z,6.27
2024-03-05T21:49:28.709Z,6.22
2024-03-05T21:51:55.503Z,6.16
2024-03-05T21:54:24.610Z,6.11
2024-03-05T21:56:51.893Z,6.09
2024-03-05T21:59:19.105Z,6.03
2024-03-05T22:01:47.970Z,6.02
2024-03-05T22:04:19.088Z,6.01
2024-03-05T22:06:46.094Z,6.00
2024-03-05T22:09:13.360Z,5.98
2024-03-05T22:11:41.644Z,5.97
2024-03-05T22:14:11.121Z,5.95
2024-03-05T22:16:39.106Z,5.93
2024-03-05T22:19:06.840Z,5.90
2024-03-05T22:21:33.725Z,5.92
2024-03-05T22:24:01.389Z,5.92
2024-03-05T22:26:30.934Z,5.91
2024-03-05T22:28:58.374Z,5.94
2024-03-05T22:31:26.283Z,5.93
2024-03-05T22:33:55.547Z,5.95
2024-03-05T22:36:22.425Z,5.94
2024-03-05T22:38:50.165Z,5.95
2024-03-05T22:41:17.815Z,5.91
2024-03-05T22:43:46.327Z,5.90
2024-03-05T22:46:14.469Z,5.86
2024-03-05T22:48:41.547Z,5.84
2024-03-05T22:51:10.315Z,5.83
2024-03-05T22:53:38.879Z,5.84
2024-03-05T22:56:08.759Z,5.81
2024-03-05T22:58:36.365Z,5.80
2024-03-05T23:01:05.983Z,5.77
2024-03-05T23:08:02.107Z,5.74
2024-03-05T23:10:30.118Z,5.74
2024-03-05T23:12:57.529Z,5.72
